createdAt,value
2019-01-25T00:02:14.210Z,60.70
2019-01-25T00:04:43.056Z,57.20
2019-01-25T00:07:11.893Z,64.23
2019-01-25T00:09:40.708Z,58.07
2019-01-25T00:12:09.511Z,64.47
2019-01-25T00:14:38.348Z,64.13
2019-01-25T00:17:07.182Z,63.27
2019-01-25T00:19:36.057Z,61.07
2019-01-25T00:22:04.897Z,65.57
2019-01-25T00:24:33.709Z,62.23
2019-01-25T00:27:02.529Z,66.23
2019-01-25T00:29:31.477Z,67.37
2019-01-25T00:32:00.281Z,61.33
2019-01-25T00:34:29.104Z,59.00
2019-01-25T00:36:57.921Z,64.93
2019-01-25T00:39:26.725Z,61.77
2019-01-25T00:41:55.532Z,64.37
2019-01-25T00:44:24.361Z,72.63
2019-01-25T00:46:53.195Z,63.10
2019-01-25T00:49:21.991Z,67.27
2019-01-25T00:51:51.771Z,62.47
2019-01-25T00:54:20.783Z,61.17
2019-01-25T00:56:49.599Z,64.23
2019-01-25T00:59:18.408Z,60.03
2019-01-25T01:01:47.323Z,64.67
2019-01-25T01:04:16.112Z,70.17
2019-01-25T01:06:44.919Z,61.97
2019-01-25T01:09:13.836Z,63.23
2019-01-25T01:11:42.649Z,69.80
2019-01-25T01:14:11.454Z,63.17
2019-01-25T01:16:40.323Z,64.03
2019-01-25T01:19:09.234Z,65.37
2019-01-25T01:21:38.036Z,59.60
2019-01-25T01:24:06.875Z,62.83
2019-01-25T01:26:35.683Z,75.50
2019-01-25T01:29:04.494Z,65.33
2019-01-25T01:31:33.343Z,68.43
2019-01-25T01:34:02.152Z,71.73
2019-01-25T01:36:30.966Z,70.73
2019-01-25T01:38:59.791Z,68.30
2019-01-25T01:41:28.593Z,66.40
2019-01-25T01:43:57.392Z,66.53
2019-01-25T01:46:26.309Z,64.33
2019-01-25T01:48:55.115Z,54.57
2019-01-25T01:51:23.955Z,58.03
2019-01-25T01:53:52.797Z,56.57
2019-01-25T01:56:21.682Z,62.50
2019-01-25T01:58:50.759Z,59.37
2019-01-25T02:01:19.603Z,54.50
2019-01-25T02:03:48.407Z,60.73
2019-01-25T02:06:17.228Z,57.00
2019-01-25T02:08:46.065Z,56.87
2019-01-25T02:11:14.882Z,58.37
2019-01-25T02:13:43.688Z,56.63
2019-01-25T02:16:13.604Z,61.93
2019-01-25T02:18:42.409Z,61.10
2019-01-25T02:21:12.076Z,58.20
2019-01-25T02:23:40.918Z,57.27
2019-01-25T02:26:09.799Z,66.27
2019-01-25T02:28:38.604Z,61.63
2019-01-25T02:31:07.468Z,65.83
2019-01-25T02:33:36.270Z,62.77
2019-01-25T02:36:05.085Z,60.93
2019-01-25T02:38:33.922Z,56.63
2019-01-25T02:41:02.745Z,67.03
2019-01-25T02:43:31.544Z,61.13
2019-01-25T02:46:00.382Z,58.07
2019-01-25T02:48:29.180Z,63.13
2019-01-25T02:50:58.960Z,61.20
2019-01-25T02:53:27.801Z,61.13
2019-01-25T02:55:56.603Z,67.20
2019-01-25T02:58:25.412Z,61.57
2019-01-25T03:00:54.259Z,57.30
2019-01-25T03:03:23.127Z,63.47
2019-01-25T03:05:52.913Z,61.60
2019-01-25T03:08:22.853Z,61.07
2019-01-25T03:10:51.643Z,59.00
2019-01-25T03:13:20.445Z,61.23
2019-01-25T03:15:49.260Z,62.37
2019-01-25T03:18:18.067Z,68.80
2019-01-25T03:20:46.901Z,61.67
2019-01-25T03:23:15.913Z,60.97
2019-01-25T03:25:44.721Z,62.23
2019-01-25T03:28:13.527Z,63.40
2019-01-25T03:30:42.360Z,65.00
2019-01-25T03:33:11.229Z,64.43
2019-01-25T03:35:40.044Z,65.30
2019-01-25T03:38:08.893Z,63.67
2019-01-25T03:40:37.700Z,64.27
2019-01-25T03:43:06.513Z,85.07
2019-01-25T03:45:35.416Z,77.13
2019-01-25T03:48:04.227Z,75.10
2019-01-25T03:50:33.032Z,84.27
2019-01-25T03:53:01.919Z,84.47
2019-01-25T03:55:30.727Z,75.33
2019-01-25T03:57:59.532Z,81.57
2019-01-25T04:00:28.928Z,75.23
2019-01-25T04:02:57.737Z,77.17
2019-01-25T04:05:26.540Z,71.20
2019-01-25T04:07:55.370Z,66.47
2019-01-25T04:10:25.138Z,74.27
2019-01-25T04:12:53.965Z,71.50
2019-01-25T04:15:24.579Z,69.53
2019-01-25T04:17:53.375Z,68.90
2019-01-25T04:20:22.844Z,67.97
2019-01-25T04:22:51.661Z,68.93
2019-01-25T04:25:21.138Z,68.57
2019-01-25T04:27:50.012Z,72.57
2019-01-25T04:30:22.863Z,69.13
2019-01-25T04:32:51.687Z,66.30
2019-01-25T04:35:20.577Z,71.10
2019-01-25T04:37:49.415Z,68.03
2019-01-25T04:40:18.396Z,72.40
2019-01-25T04:42:47.202Z,67.40
2019-01-25T04:45:19.840Z,74.13
2019-01-25T04:47:48.648Z,70.63
2019-01-25T04:50:19.382Z,70.17
2019-01-25T04:52:48.399Z,72.67
2019-01-25T04:55:20.898Z,70.57
2019-01-25T04:57:49.901Z,72.43
2019-01-25T05:00:19.912Z,65.63
2019-01-25T05:02:52.596Z,73.07
2019-01-25T05:05:21.574Z,70.07
2019-01-25T05:07:50.367Z,68.47
2019-01-25T05:10:19.191Z,71.03
2019-01-25T05:12:53.117Z,68.07
2019-01-25T05:15:22.049Z,70.57
2019-01-25T05:17:51.526Z,68.73
2019-01-25T05:20:20.369Z,71.40
2019-01-25T05:22:51.575Z,70.57
2019-01-25T05:25:24.004Z,66.07
2019-01-25T05:27:52.822Z,62.30
2019-01-25T05:30:21.624Z,75.77
2019-01-25T05:32:50.450Z,68.97
2019-01-25T05:35:19.253Z,69.83
2019-01-25T05:37:48.070Z,72.30
2019-01-25T05:40:18.533Z,70.07
2019-01-25T05:42:47.343Z,69.87
2019-01-25T05:45:16.324Z,69.53
2019-01-25T05:47:45.170Z,66.97
2019-01-25T05:50:14.542Z,73.77
2019-01-25T05:52:43.339Z,69.23
2019-01-25T05:55:16.568Z,66.80
2019-01-25T05:57:45.386Z,69.53
2019-01-25T06:00:15.831Z,70.40
2019-01-25T06:02:44.670Z,75.40
2019-01-25T06:05:13.470Z,74.87
2019-01-25T06:07:42.275Z,76.37
2019-01-25T06:10:11.589Z,78.87
2019-01-25T06:12:40.398Z,71.43
2019-01-25T06:15:10.832Z,78.00
2019-01-25T06:17:39.649Z,72.03
2019-01-25T06:20:09.229Z,76.63
2019-01-25T06:22:38.042Z,81.57
2019-01-25T06:25:07.357Z,75.43
2019-01-25T06:27:37.135Z,70.53
2019-01-25T06:30:07.636Z,73.70
2019-01-25T06:32:36.613Z,72.43
2019-01-25T06:35:06.401Z,71.20
2019-01-25T06:37:35.196Z,72.57
2019-01-25T06:40:05.715Z,75.53
2019-01-25T06:42:34.513Z,74.13
2019-01-25T06:45:04.506Z,69.87
2019-01-25T06:47:33.340Z,76.57
2019-01-25T06:50:02.156Z,75.80
2019-01-25T06:52:31.018Z,72.77
2019-01-25T06:55:00.004Z,69.63
2019-01-25T06:57:30.465Z,73.93
2019-01-25T06:59:59.279Z,74.10
2019-01-25T07:02:28.575Z,73.40
2019-01-25T07:04:57.387Z,71.53
2019-01-25T07:07:27.834Z,75.30
2019-01-25T07:09:56.836Z,75.70
2019-01-25T07:12:25.650Z,70.40
2019-01-25T07:14:54.497Z,71.33
2019-01-25T07:17:23.363Z,67.83
2019-01-25T07:19:52.170Z,75.13
2019-01-25T07:22:20.989Z,72.47
2019-01-25T07:24:56.908Z,71.97
2019-01-25T07:27:20.307Z,68.43
2019-01-25T07:29:49.120Z,73.37
2019-01-25T07:32:18.118Z,69.27
2019-01-25T07:34:46.946Z,69.53
2019-01-25T07:37:15.813Z,77.87
2019-01-25T07:39:44.705Z,83.67
2019-01-25T07:42:13.632Z,72.17
2019-01-25T07:44:42.536Z,76.37
2019-01-25T07:47:11.367Z,72.30
2019-01-25T07:49:40.306Z,72.60
2019-01-25T07:52:09.215Z,72.93
2019-01-25T07:54:38.076Z,73.60
2019-01-25T07:57:06.933Z,71.27
2019-01-25T07:59:35.798Z,71.70
2019-01-25T08:02:04.606Z,71.17
2019-01-25T08:04:33.460Z,75.20
2019-01-25T08:07:02.282Z,66.23
2019-01-25T08:09:31.228Z,69.43
2019-01-25T08:12:07.020Z,72.17
2019-01-25T08:14:30.639Z,76.47
2019-01-25T08:16:59.493Z,70.80
2019-01-25T08:19:28.334Z,71.13
2019-01-25T08:21:57.140Z,68.43
2019-01-25T08:24:26.002Z,80.30
2019-01-25T08:26:54.887Z,76.37
2019-01-25T08:29:27.847Z,72.00
2019-01-25T08:31:54.248Z,79.30
2019-01-25T08:34:23.130Z,74.90
2019-01-25T08:36:52.018Z,73.37
2019-01-25T08:39:21.020Z,80.77
2019-01-25T08:41:49.861Z,75.30
2019-01-25T08:44:18.651Z,73.20
2019-01-25T08:46:47.535Z,78.10
2019-01-25T08:49:16.390Z,74.93
2019-01-25T08:51:45.321Z,73.30
2019-01-25T08:54:16.133Z,73.40
2019-01-25T08:56:45.080Z,72.60
2019-01-25T08:59:13.906Z,78.90
2019-01-25T09:01:42.851Z,76.33
2019-01-25T09:04:12.653Z,79.10
2019-01-25T09:06:41.467Z,77.67
2019-01-25T09:09:10.343Z,74.37
2019-01-25T09:11:39.217Z,71.87
2019-01-25T09:14:08.035Z,73.90
2019-01-25T09:16:36.833Z,78.23
2019-01-25T09:19:05.691Z,74.60
2019-01-25T09:21:34.562Z,75.07
2019-01-25T09:24:03.373Z,76.00
2019-01-25T09:26:32.214Z,75.23
2019-01-25T09:29:01.091Z,71.17
2019-01-25T09:31:29.895Z,76.30
2019-01-25T09:33:58.803Z,66.73
2019-01-25T09:36:27.669Z,61.93
2019-01-25T09:38:56.647Z,66.17
2019-01-25T09:41:25.561Z,73.33
2019-01-25T09:43:54.371Z,71.60
2019-01-25T09:46:23.173Z,65.73
2019-01-25T09:48:51.997Z,68.70
2019-01-25T09:51:20.794Z,69.73
2019-01-25T09:53:49.717Z,68.83
2019-01-25T09:56:20.252Z,66.03
2019-01-25T09:58:49.152Z,71.77
2019-01-25T10:01:18.013Z,81.40
2019-01-25T10:03:46.818Z,69.20
2019-01-25T10:06:15.656Z,73.33
2019-01-25T10:08:44.489Z,70.83
2019-01-25T10:11:13.368Z,74.20
2019-01-25T10:13:42.168Z,69.47
2019-01-25T10:16:11.005Z,67.73
2019-01-25T10:18:39.854Z,72.87
2019-01-25T10:21:08.742Z,69.57
2019-01-25T10:23:39.154Z,69.57
2019-01-25T10:26:08.353Z,66.97
2019-01-25T10:28:37.158Z,65.43
2019-01-25T10:31:06.011Z,62.93
2019-01-25T10:33:34.885Z,66.13
2019-01-25T10:36:03.680Z,61.83
2019-01-25T10:38:32.536Z,67.23
2019-01-25T10:41:01.358Z,60.67
2019-01-25T10:43:30.164Z,59.30
2019-01-25T10:45:59.000Z,62.73
2019-01-25T10:48:27.816Z,65.47
2019-01-25T10:50:56.617Z,59.77
2019-01-25T10:53:25.457Z,62.73
2019-01-25T10:55:54.257Z,63.80
2019-01-25T10:58:23.499Z,67.57
2019-01-25T11:00:52.367Z,64.13
2019-01-25T11:03:22.144Z,62.83
2019-01-25T11:05:50.952Z,61.97
2019-01-25T11:08:19.788Z,61.00
2019-01-25T11:10:48.574Z,61.50
2019-01-25T11:13:17.459Z,59.53
2019-01-25T11:15:46.277Z,64.03
2019-01-25T11:18:15.082Z,68.03
2019-01-25T11:20:43.885Z,58.57
2019-01-25T11:23:12.728Z,48.27
2019-01-25T11:25:41.802Z,59.10
2019-01-25T11:28:10.597Z,51.87
2019-01-25T11:30:39.433Z,48.27
2019-01-25T11:33:08.241Z,53.63
2019-01-25T11:35:37.050Z,54.30
2019-01-25T11:38:05.886Z,55.50
2019-01-25T11:40:36.057Z,53.57
2019-01-25T11:43:08.818Z,51.83
2019-01-25T11:45:37.212Z,46.17
2019-01-25T11:48:07.791Z,43.47
2019-01-25T11:50:36.595Z,47.43
2019-01-25T11:53:05.431Z,48.63
2019-01-25T11:55:34.234Z,48.20
2019-01-25T11:58:03.109Z,50.93
2019-01-25T12:00:32.844Z,49.07
2019-01-25T12:03:01.913Z,47.70
2019-01-25T12:05:30.778Z,48.83
2019-01-25T12:07:59.632Z,49.07
2019-01-25T12:10:30.586Z,48.07
2019-01-25T12:12:59.386Z,49.97
2019-01-25T12:15:28.220Z,48.83
2019-01-25T12:17:57.085Z,48.63
2019-01-25T12:20:30.516Z,48.10
2019-01-25T12:22:59.386Z,47.40
2019-01-25T12:25:28.204Z,42.70
2019-01-25T12:27:57.318Z,39.30
2019-01-25T12:30:27.810Z,44.57
2019-01-25T12:32:56.625Z,41.73
2019-01-25T12:35:26.319Z,44.83
2019-01-25T12:37:55.215Z,42.27
2019-01-25T12:40:24.021Z,46.70
2019-01-25T12:42:52.998Z,41.00
2019-01-25T12:45:23.509Z,39.27
2019-01-25T12:47:52.408Z,32.67
2019-01-25T12:50:28.579Z,32.57
2019-01-25T12:52:57.654Z,34.33
2019-01-25T12:55:26.456Z,39.40
2019-01-25T12:57:55.287Z,26.67
2019-01-25T13:00:24.097Z,28.37
2019-01-25T13:02:53.147Z,37.43
2019-01-25T13:05:22.059Z,33.33
2019-01-25T13:07:50.867Z,32.47
2019-01-25T13:10:21.016Z,29.90
2019-01-25T13:12:49.862Z,32.47
2019-01-25T13:15:18.684Z,30.83
2019-01-25T13:17:47.494Z,33.20
2019-01-25T13:20:18.028Z,31.60
2019-01-25T13:22:46.899Z,37.40
2019-01-25T13:25:15.808Z,34.20
2019-01-25T13:27:44.777Z,35.73
2019-01-25T13:30:19.425Z,35.00
2019-01-25T13:32:48.493Z,33.37
2019-01-25T13:35:17.625Z,32.30
2019-01-25T13:37:46.580Z,34.33
2019-01-25T13:40:19.512Z,30.50
2019-01-25T13:42:48.486Z,32.43
2019-01-25T13:45:18.163Z,35.23
2019-01-25T13:47:47.388Z,33.70
2019-01-25T13:50:17.359Z,34.20
2019-01-25T13:52:46.160Z,31.80
2019-01-25T13:55:15.374Z,35.40
2019-01-25T13:57:44.192Z,32.17
2019-01-25T14:00:14.625Z,30.40
2019-01-25T14:02:43.585Z,29.70
2019-01-25T14:05:13.893Z,33.77
2019-01-25T14:07:42.693Z,30.97
2019-01-25T14:10:16.041Z,31.73
2019-01-25T14:12:44.878Z,28.70
2019-01-25T14:15:14.824Z,31.37
2019-01-25T14:17:43.640Z,30.73
2019-01-25T14:20:22.947Z,28.90
2019-01-25T14:22:46.813Z,33.60
2019-01-25T14:25:15.624Z,25.93
2019-01-25T14:27:44.588Z,26.40
2019-01-25T14:30:17.831Z,23.20
2019-01-25T14:32:46.648Z,28.33
2019-01-25T14:35:15.533Z,27.73
2019-01-25T14:37:44.350Z,33.53
2019-01-25T14:40:14.268Z,35.07
2019-01-25T14:42:43.148Z,36.30
2019-01-25T14:45:13.248Z,31.00
2019-01-25T14:47:42.180Z,34.40
2019-01-25T14:50:15.317Z,35.63
2019-01-25T14:52:44.243Z,31.80
2019-01-25T14:55:13.208Z,27.77
2019-01-25T14:57:42.089Z,30.17
2019-01-25T15:00:11.097Z,27.37
2019-01-25T15:02:40.171Z,26.67
2019-01-25T15:05:14.735Z,28.80
2019-01-25T15:07:45.363Z,27.27
2019-01-25T15:10:15.152Z,22.47
2019-01-25T15:12:44.179Z,26.53
2019-01-25T15:15:13.756Z,20.90
2019-01-25T15:17:42.701Z,20.90
2019-01-25T15:20:14.173Z,23.23
2019-01-25T15:22:43.468Z,24.80
2019-01-25T15:25:12.293Z,21.27
2019-01-25T15:27:41.113Z,19.43
2019-01-25T15:30:11.553Z,41.97
2019-01-25T15:32:40.415Z,23.70
2019-01-25T15:35:10.487Z,20.67
2019-01-25T15:37:39.353Z,20.43
2019-01-25T15:40:09.799Z,19.53
2019-01-25T15:42:38.727Z,21.00
2019-01-25T15:45:11.338Z,20.93
2019-01-25T15:47:40.131Z,22.50
2019-01-25T15:50:10.629Z,27.40
2019-01-25T15:52:39.436Z,20.23
2019-01-25T15:55:08.816Z,20.77
2019-01-25T15:57:37.829Z,22.90
2019-01-25T16:00:11.250Z,22.53
2019-01-25T16:02:40.173Z,22.53
2019-01-25T16:05:09.990Z,22.83
2019-01-25T16:07:38.865Z,21.43
2019-01-25T16:10:09.484Z,21.07
2019-01-25T16:12:38.307Z,21.47
2019-01-25T16:15:09.053Z,19.83
2019-01-25T16:17:37.936Z,26.67
2019-01-25T16:20:08.519Z,25.07
2019-01-25T16:22:38.668Z,21.33
2019-01-25T16:25:09.236Z,19.90
2019-01-25T16:27:38.132Z,21.67
2019-01-25T16:30:11.510Z,22.40
2019-01-25T16:32:40.321Z,24.07
2019-01-25T16:35:09.724Z,22.23
2019-01-25T16:37:38.532Z,22.17
2019-01-25T16:40:08.955Z,19.67
2019-01-25T16:42:37.783Z,21.20
2019-01-25T16:45:08.331Z,21.27
2019-01-25T16:47:37.135Z,20.77
2019-01-25T16:50:06.728Z,19.37
2019-01-25T16:52:35.613Z,19.37
2019-01-25T16:55:07.122Z,21.90
2019-01-25T16:57:35.983Z,22.57
2019-01-25T17:00:06.597Z,21.67
2019-01-25T17:02:35.467Z,20.63
2019-01-25T17:05:06.172Z,24.53
2019-01-25T17:07:36.049Z,22.30
2019-01-25T17:10:07.577Z,21.03
2019-01-25T17:12:37.855Z,21.43
2019-01-25T17:15:13.682Z,20.53
2019-01-25T17:17:42.549Z,19.43
2019-01-25T17:20:21.055Z,20.90
2019-01-25T17:22:45.851Z,18.90
2019-01-25T17:25:14.859Z,22.30
2019-01-25T17:27:43.859Z,20.77
2019-01-25T17:30:20.021Z,16.77
2019-01-25T17:32:49.074Z,21.17
2019-01-25T17:35:18.076Z,19.10
2019-01-25T17:37:47.076Z,18.40
2019-01-25T17:40:18.426Z,20.20
2019-01-25T17:42:47.307Z,20.67
2019-01-25T17:45:16.104Z,21.20
2019-01-25T17:47:45.014Z,21.03
2019-01-25T17:50:14.453Z,19.77
2019-01-25T17:52:44.320Z,18.83
2019-01-25T17:55:17.621Z,21.37
2019-01-25T17:57:46.444Z,19.73
2019-01-25T18:00:16.819Z,21.40
2019-01-25T18:02:45.925Z,24.47
2019-01-25T18:05:14.808Z,22.90
2019-01-25T18:07:44.304Z,23.77
2019-01-25T18:10:14.793Z,22.33
2019-01-25T18:12:43.595Z,23.77
2019-01-25T18:15:13.845Z,22.50
2019-01-25T18:17:42.659Z,22.53
2019-01-25T18:20:13.104Z,20.67
2019-01-25T18:22:42.042Z,22.57
2019-01-25T18:25:12.480Z,29.27
2019-01-25T18:27:43.201Z,31.00
2019-01-25T18:30:13.722Z,24.70
2019-01-25T18:32:42.527Z,22.30
2019-01-25T18:35:11.334Z,23.00
2019-01-25T18:37:40.149Z,22.33
2019-01-25T18:40:10.853Z,23.63
2019-01-25T18:42:39.736Z,37.40
2019-01-25T18:45:09.011Z,33.27
2019-01-25T18:47:38.022Z,22.27
2019-01-25T18:50:11.503Z,25.70
2019-01-25T18:52:40.418Z,59.63
2019-01-25T18:55:11.035Z,28.57
2019-01-25T18:57:39.941Z,33.47
2019-01-25T19:00:10.380Z,27.83
2019-01-25T19:02:39.352Z,24.77
2019-01-25T19:05:08.960Z,33.83
2019-01-25T19:07:37.756Z,24.53
2019-01-25T19:10:11.149Z,30.27
2019-01-25T19:12:39.966Z,30.63
2019-01-25T19:15:11.909Z,31.43
2019-01-25T19:17:40.708Z,26.27
2019-01-25T19:20:10.999Z,26.47
2019-01-25T19:22:39.839Z,25.33
2019-01-25T19:25:09.488Z,23.40
2019-01-25T19:27:38.305Z,26.30
2019-01-25T19:30:08.796Z,26.27
2019-01-25T19:32:37.787Z,31.00
2019-01-25T19:35:08.243Z,28.37
2019-01-25T19:37:37.143Z,32.57
2019-01-25T19:40:07.588Z,29.80
2019-01-25T19:42:36.410Z,26.70
2019-01-25T19:45:11.854Z,25.30
2019-01-25T19:47:37.789Z,26.07
2019-01-25T19:50:08.373Z,25.93
2019-01-25T19:52:37.202Z,27.13
2019-01-25T19:55:07.629Z,28.87
2019-01-25T19:57:36.514Z,27.10
2019-01-25T20:00:09.892Z,28.27
2019-01-25T20:02:38.977Z,28.23
2019-01-25T20:05:09.500Z,29.83
2019-01-25T20:07:38.331Z,30.53
2019-01-25T20:10:08.859Z,27.37
2019-01-25T20:12:37.952Z,28.23
2019-01-25T20:15:19.345Z,28.27
2019-01-25T20:17:46.246Z,30.10
2019-01-25T20:20:17.679Z,28.43
2019-01-25T20:22:46.684Z,32.73
2019-01-25T20:25:15.573Z,31.20
2019-01-25T20:27:44.506Z,32.97
2019-01-25T20:30:15.051Z,35.73
2019-01-25T20:32:44.034Z,33.47
2019-01-25T20:35:14.834Z,32.27
2019-01-25T20:37:43.720Z,34.43
2019-01-25T20:40:16.121Z,32.67
2019-01-25T20:42:45.437Z,36.50
2019-01-25T20:45:26.999Z,32.40
2019-01-25T20:47:52.372Z,35.17
2019-01-25T20:50:22.459Z,30.07
2019-01-25T20:52:51.263Z,31.73
2019-01-25T20:55:20.104Z,31.80
2019-01-25T20:57:48.923Z,31.33
2019-01-25T21:00:19.353Z,35.43
2019-01-25T21:02:48.219Z,30.13
2019-01-25T21:05:17.165Z,34.70
2019-01-25T21:07:47.253Z,34.57
2019-01-25T21:10:17.267Z,34.97
2019-01-25T21:12:46.096Z,34.00
2019-01-25T21:15:16.275Z,36.50
2019-01-25T21:17:45.114Z,34.43
2019-01-25T21:20:21.270Z,37.03
2019-01-25T21:22:50.101Z,32.13
2019-01-25T21:25:18.951Z,37.77
2019-01-25T21:27:47.828Z,37.17
2019-01-25T21:30:23.874Z,35.20
2019-01-25T21:32:52.680Z,42.20
2019-01-25T21:35:21.487Z,37.77
2019-01-25T21:37:50.442Z,33.33
2019-01-25T21:40:23.323Z,36.10
2019-01-25T21:42:52.398Z,37.17
2019-01-25T21:45:22.080Z,36.43
2019-01-25T21:47:50.966Z,37.90
2019-01-25T21:50:21.463Z,38.27
2019-01-25T21:52:50.281Z,39.60
2019-01-25T21:55:19.103Z,39.97
2019-01-25T21:57:47.946Z,40.17
2019-01-25T22:00:17.844Z,36.57
2019-01-25T22:02:46.712Z,38.13
2019-01-25T22:05:15.826Z,34.70
2019-01-25T22:07:44.637Z,41.10
2019-01-25T22:10:14.917Z,35.70
2019-01-25T22:12:43.780Z,38.13
2019-01-25T22:15:14.721Z,37.30
2019-01-25T22:17:43.537Z,43.50
2019-01-25T22:20:13.956Z,41.80
2019-01-25T22:22:42.768Z,44.53
2019-01-25T22:25:12.147Z,38.77
2019-01-25T22:27:41.040Z,35.73
2019-01-25T22:30:11.481Z,39.37
2019-01-25T22:32:40.285Z,39.77
2019-01-25T22:35:09.100Z,43.53
2019-01-25T22:37:38.063Z,37.63
2019-01-25T22:40:08.584Z,40.53
2019-01-25T22:42:37.389Z,45.17
2019-01-25T22:45:07.863Z,43.80
2019-01-25T22:47:36.674Z,42.83
2019-01-25T22:50:07.172Z,37.70
2019-01-25T22:52:36.029Z,38.33
2019-01-25T22:55:06.476Z,39.33
2019-01-25T22:57:35.272Z,39.87
2019-01-25T23:00:05.728Z,36.13
2019-01-25T23:02:36.679Z,38.27
2019-01-25T23:05:07.165Z,43.90
2019-01-25T23:07:35.966Z,39.13
2019-01-25T23:10:06.468Z,34.43
2019-01-25T23:12:35.883Z,37.27
2019-01-25T23:15:06.466Z,38.90
2019-01-25T23:17:35.271Z,37.97
2019-01-25T23:20:05.984Z,38.70
2019-01-25T23:22:34.807Z,41.33
2019-01-25T23:25:04.600Z,39.83
2019-01-25T23:27:33.528Z,38.17
2019-01-25T23:30:02.410Z,40.67
2019-01-25T23:32:33.102Z,36.70
2019-01-25T23:35:01.935Z,36.57
2019-01-25T23:37:30.784Z,39.57
2019-01-25T23:39:59.579Z,35.40
2019-01-25T23:42:28.415Z,43.00
2019-01-25T23:44:57.254Z,35.83
2019-01-25T23:47:26.064Z,37.03
2019-01-25T23:49:54.877Z,37.53
2019-01-25T23:52:23.712Z,35.33
2019-01-25T23:54:52.520Z,40.43
2019-01-25T23:57:21.404Z,36.40
2019-01-25T23:59:50.230Z,39.47
